Terminal Aerodrome Forecast
Issued by NWS Rapid City, SD

Home | Current Version | Previous Version | Graphics & Text | Print | Product List | Glossary On
Versions: 1 2 3 4 5 6 7 8 9 10 11 12 13 14 15 16 17 18 19 20 21 22 23 24
412
FTUS43 KUNR 072331
TAFRAP
TAF
KRAP 072331Z 0800/0824 35015KT P6SM SCT080
     FM080400 33012KT P6SM FEW100
     FM081200 33006KT P6SM SKC
     FM081900 04006KT P6SM SKC=

USA.gov is the U.S. government's official web portal to all federal, state and local government web resources and services.